Time;durP1;ratioP1;P1;durP2;ratioP2;P2;SDS_P1;SDS_P2;PMS_P1;PMS_P2;Temp;Humidity;BMP_temperature;BMP_pressure;BME280_temperature;BME280_humidity;BME280_pressure;Samples;Min_cycle;Max_cycle;Signal;HPM_P1;HPM_P2
2021/11/28 00:02:20;;;;;;;17.70;10.65;;;;;;;5.62;73.04;98112.63;5046086;28;20038;-56
2021/11/28 00:04:47;;;;;;;18.30;10.10;;;;;;;5.63;72.88;98109.00;5034222;28;20043;-57
2021/11/28 00:14:47;;;;;;;15.63;10.27;;;;;;;5.68;72.49;98104.16;5033947;28;20393;-55
2021/11/28 00:17:12;;;;;;;15.85;10.57;;;;;;;5.63;72.56;98114.31;5033299;28;20064;-57
2021/11/28 00:19:40;;;;;;;15.13;10.05;;;;;;;5.73;72.50;98112.53;5033529;28;20026;-57
2021/11/28 00:22:06;;;;;;;14.73;10.40;;;;;;;5.71;72.72;98121.59;5032089;28;20029;-56
2021/11/28 00:24:33;;;;;;;19.90;10.90;;;;;;;5.73;72.92;98125.81;5033340;28;20080;-54
2021/11/28 00:26:59;;;;;;;16.48;10.75;;;;;;;5.77;72.97;98112.25;5033521;28;20021;-58
2021/11/28 00:29:25;;;;;;;17.08;10.88;;;;;;;5.79;72.58;98118.28;5032914;28;20050;-57
2021/11/28 00:31:50;;;;;;;16.83;10.82;;;;;;;5.84;72.73;98113.38;5032269;28;20095;-53
2021/11/28 00:34:16;;;;;;;15.68;10.40;;;;;;;5.86;72.29;98124.72;5033613;28;20129;-59
2021/11/28 00:36:41;;;;;;;16.05;10.50;;;;;;;5.82;72.63;98113.53;5032966;28;20046;-58
2021/11/28 00:39:08;;;;;;;17.42;11.27;;;;;;;5.83;72.45;98120.53;5033221;28;20473;-57
2021/11/28 00:41:33;;;;;;;15.55;10.02;;;;;;;5.84;72.71;98110.72;5033290;28;20482;-57
2021/11/28 00:43:59;;;;;;;16.63;10.40;;;;;;;5.82;72.64;98110.88;5033264;28;20037;-56
2021/11/28 00:46:25;;;;;;;17.80;10.15;;;;;;;5.84;72.68;98108.06;5032954;28;20060;-58
2021/11/28 00:48:50;;;;;;;16.75;9.65;;;;;;;5.83;72.35;98104.59;5033616;28;20115;-58
2021/11/28 00:53:46;;;;;;;15.25;10.38;;;;;;;5.88;72.50;98117.44;5032723;28;20030;-57
2021/11/28 00:56:12;;;;;;;17.45;10.25;;;;;;;5.88;72.59;98113.00;5032726;28;20036;-56
2021/11/28 00:58:38;;;;;;;15.25;10.57;;;;;;;5.88;72.44;98091.75;5032165;28;20533;-60
2021/11/28 01:01:04;;;;;;;14.82;9.32;;;;;;;5.85;72.49;98089.38;5030887;28;20108;-59
2021/11/28 01:03:29;;;;;;;17.80;10.10;;;;;;;5.87;72.84;98100.69;5030749;28;20038;-53
2021/11/28 01:05:55;;;;;;;14.70;9.77;;;;;;;5.89;72.58;98093.41;5032968;28;20029;-58
2021/11/28 01:08:22;;;;;;;17.52;11.00;;;;;;;5.94;72.78;98100.13;5033380;28;20029;-56
2021/11/28 01:10:49;;;;;;;15.43;9.57;;;;;;;5.95;72.49;98102.66;5032599;28;20196;-52
2021/11/28 01:13:16;;;;;;;15.95;9.98;;;;;;;5.92;72.86;98102.09;5032512;28;20025;-56
2021/11/28 01:15:42;;;;;;;15.82;10.52;;;;;;;5.98;72.71;98112.16;5032759;28;20029;-55
2021/11/28 01:18:08;;;;;;;16.23;10.45;;;;;;;5.96;72.49;98104.34;5032724;28;20454;-55
2021/11/28 01:20:33;;;;;;;16.55;9.95;;;;;;;5.94;72.71;98089.50;5032373;28;20083;-57
2021/11/28 01:22:59;;;;;;;16.67;10.82;;;;;;;6.00;72.73;98105.75;5032067;28;20033;-54
2021/11/28 01:25:24;;;;;;;17.23;10.10;;;;;;;5.99;72.45;98097.91;5032350;28;20036;-57
2021/11/28 01:27:50;;;;;;;16.33;10.48;;;;;;;6.00;72.33;98099.56;5032891;28;20375;-54
2021/11/28 01:30:16;;;;;;;14.55;10.00;;;;;;;5.95;72.61;98109.78;5031961;28;20056;-55
2021/11/28 01:32:44;;;;;;;15.18;10.23;;;;;;;6.02;72.57;98093.19;5031818;28;20041;-56
2021/11/28 01:35:11;;;;;;;15.52;9.82;;;;;;;5.99;72.54;98096.09;5031075;28;20083;-57
2021/11/28 01:37:38;;;;;;;15.20;9.95;;;;;;;6.06;72.56;98104.41;5032407;28;20052;-56
2021/11/28 01:40:06;;;;;;;16.45;9.68;;;;;;;6.11;72.37;98102.16;5032171;28;20025;-59
2021/11/28 01:42:38;;;;;;;14.25;9.60;;;;;;;6.11;72.26;98102.16;5031734;28;20029;-55
2021/11/28 01:45:04;;;;;;;15.32;9.80;;;;;;;6.03;71.98;98100.19;5031989;28;20034;-57
2021/11/28 01:47:31;;;;;;;14.80;9.95;;;;;;;6.06;72.27;98108.84;5031851;28;20428;-55
2021/11/28 01:49:57;;;;;;;15.68;9.50;;;;;;;6.04;72.30;98111.66;5032046;28;20029;-56
2021/11/28 01:52:24;;;;;;;19.23;10.43;;;;;;;6.09;72.34;98109.44;5031855;28;20026;-58
2021/11/28 01:54:50;;;;;;;16.15;10.00;;;;;;;6.14;71.98;98104.53;5030571;28;20109;-58
2021/11/28 01:57:16;;;;;;;13.55;9.07;;;;;;;6.13;71.94;98104.66;5032227;28;20033;-56
2021/11/28 01:59:42;;;;;;;13.30;9.77;;;;;;;6.08;72.35;98109.56;5031628;28;20385;-56
2021/11/28 02:02:08;;;;;;;15.98;9.90;;;;;;;6.11;72.15;98110.13;5031303;28;20034;-56
2021/11/28 02:04:34;;;;;;;14.63;9.90;;;;;;;6.10;72.09;98111.09;5031474;28;20520;-56
2021/11/28 02:06:59;;;;;;;15.15;9.77;;;;;;;6.13;71.77;98108.16;5031436;28;20036;-56
2021/11/28 02:09:25;;;;;;;15.02;10.23;;;;;;;6.14;72.19;98109.84;5031561;28;20040;-58
2021/11/28 02:11:51;;;;;;;14.70;10.45;;;;;;;6.14;72.45;98109.00;5031274;28;20034;-58
2021/11/28 02:14:22;;;;;;;15.85;10.35;;;;;;;6.18;71.94;98111.25;5031740;28;20038;-58
2021/11/28 02:16:49;;;;;;;14.45;10.02;;;;;;;6.14;72.27;98116.97;5030266;28;20030;-52
2021/11/28 02:19:16;;;;;;;16.52;10.15;;;;;;;6.16;72.20;98118.53;5031194;28;20029;-51
2021/11/28 02:21:41;;;;;;;15.50;10.55;;;;;;;6.13;72.39;98105.50;5031565;28;20029;-57
2021/11/28 02:24:07;;;;;;;15.70;10.88;;;;;;;6.17;72.09;98106.09;5031203;28;20125;-57
2021/11/28 02:26:33;;;;;;;18.50;11.45;;;;;;;6.25;71.98;98113.34;5030888;28;20496;-56
2021/11/28 02:28:59;;;;;;;14.38;10.05;;;;;;;6.24;72.21;98107.19;5031297;28;20030;-56
2021/11/28 02:31:24;;;;;;;14.10;10.00;;;;;;;6.25;72.00;98102.72;5031461;28;20083;-58
2021/11/28 02:33:50;;;;;;;16.75;11.18;;;;;;;6.25;72.02;98097.41;5031000;28;20037;-57
2021/11/28 02:36:16;;;;;;;18.13;11.05;;;;;;;6.20;72.20;98084.53;5031365;28;20037;-55
2021/11/28 02:38:42;;;;;;;15.02;10.93;;;;;;;6.25;72.22;98106.22;5031273;28;20029;-55
2021/11/28 02:41:08;;;;;;;15.98;10.18;;;;;;;6.25;72.63;98100.91;5029650;28;20092;-58
2021/11/28 02:43:34;;;;;;;15.52;10.63;;;;;;;6.27;72.71;98111.38;5031320;28;20025;-56
2021/11/28 02:46:03;;;;;;;15.35;10.70;;;;;;;6.31;72.87;98107.50;5031561;28;20029;-57
2021/11/28 02:48:29;;;;;;;16.75;10.95;;;;;;;6.22;73.04;98092.38;5031121;28;20072;-57
2021/11/28 02:50:57;;;;;;;17.73;10.85;;;;;;;6.28;72.85;98107.78;5031387;28;20025;-57
2021/11/28 02:53:23;;;;;;;17.08;11.68;;;;;;;6.27;73.18;98109.56;5031347;28;20465;-58
2021/11/28 02:55:53;;;;;;;16.92;11.60;;;;;;;6.30;73.12;98105.81;5029870;28;20061;-56
2021/11/28 02:58:20;;;;;;;19.15;11.90;;;;;;;6.27;73.23;98106.06;5030684;28;20115;-57
2021/11/28 03:00:50;;;;;;;16.77;11.43;;;;;;;6.29;72.83;98107.63;5030824;28;20470;-58
2021/11/28 03:03:16;;;;;;;16.45;11.23;;;;;;;6.24;72.85;98107.19;5031077;28;20115;-56
2021/11/28 03:05:42;;;;;;;17.50;11.77;;;;;;;6.30;73.31;98121.75;5030690;28;20129;-58
2021/11/28 03:08:08;;;;;;;18.13;12.25;;;;;;;6.11;72.78;98080.91;5030601;28;20429;-59
2021/11/28 03:10:44;;;;;;;17.80;12.20;;;;;;;6.34;72.93;98117.84;5030907;28;20047;-58
2021/11/28 03:13:17;;;;;;;18.17;11.93;;;;;;;6.40;72.60;98125.25;5031120;28;20485;-57
2021/11/28 03:15:43;;;;;;;17.65;12.32;;;;;;;6.39;72.14;98126.22;5030983;28;20438;-58
2021/11/28 03:18:15;;;;;;;16.45;11.10;;;;;;;6.45;72.37;98116.88;5030402;28;20073;-58
2021/11/28 03:20:41;;;;;;;16.42;11.68;;;;;;;6.35;72.11;98122.19;5030549;28;20432;-56
2021/11/28 03:23:09;;;;;;;17.40;12.20;;;;;;;6.37;72.11;98120.22;5030529;28;20088;-58
2021/11/28 03:25:35;;;;;;;17.27;12.13;;;;;;;6.35;72.11;98108.03;5033736;28;20029;-55
2021/11/28 03:28:00;;;;;;;17.17;11.55;;;;;;;6.44;71.96;98123.16;5033032;28;20044;-57
2021/11/28 03:30:26;;;;;;;17.00;11.18;;;;;;;6.46;71.75;98121.22;5033403;28;20045;-58
2021/11/28 03:32:52;;;;;;;17.60;12.15;;;;;;;6.46;71.44;98119.38;5033597;28;20042;-57
2021/11/28 03:35:18;;;;;;;17.63;11.90;;;;;;;6.47;71.64;98138.84;5034442;28;20033;-58
2021/11/28 03:37:44;;;;;;;16.80;11.45;;;;;;;6.49;71.16;98138.69;5034187;28;20489;-58
2021/11/28 03:40:12;;;;;;;16.48;11.35;;;;;;;6.47;71.34;98118.38;5034517;28;20032;-60
2021/11/28 03:42:38;;;;;;;14.75;10.98;;;;;;;6.49;71.32;98133.34;5033298;28;20029;-53
2021/11/28 03:45:12;;;;;;;15.25;10.82;;;;;;;6.49;71.13;98112.09;5034424;28;20033;-55
2021/11/28 03:47:38;;;;;;;16.90;10.90;;;;;;;6.52;70.87;98136.59;5034218;28;20036;-58
2021/11/28 03:50:06;;;;;;;15.82;11.00;;;;;;;6.52;71.04;98141.91;5033998;28;20029;-53
2021/11/28 03:52:32;;;;;;;14.05;10.32;;;;;;;6.52;70.58;98151.72;5034833;28;20060;-57
2021/11/28 03:54:57;;;;;;;17.85;10.77;;;;;;;6.45;70.77;98140.78;5034238;28;20539;-54
2021/11/28 03:57:23;;;;;;;14.88;10.00;;;;;;;6.28;70.69;98102.47;5033754;28;20101;-58
2021/11/28 03:59:49;;;;;;;13.75;9.55;;;;;;;6.50;70.71;98143.88;5033978;28;20056;-57
2021/11/28 04:02:16;;;;;;;18.15;10.15;;;;;;;6.52;70.38;98146.41;5033685;28;20385;-56
2021/11/28 04:04:42;;;;;;;15.52;10.80;;;;;;;6.31;70.51;98123.44;5033827;28;20026;-56
2021/11/28 04:07:07;;;;;;;15.10;10.35;;;;;;;6.52;70.37;98154.38;5033779;28;20051;-55
2021/11/28 04:09:33;;;;;;;14.35;10.10;;;;;;;6.56;70.16;98156.59;5033565;28;20029;-54
2021/11/28 04:11:59;;;;;;;16.25;10.85;;;;;;;6.56;70.08;98147.78;5032581;28;20390;-59
2021/11/28 04:14:25;;;;;;;13.63;9.60;;;;;;;6.63;69.72;98162.22;5033491;28;20026;-57
2021/11/28 04:16:50;;;;;;;14.35;10.38;;;;;;;6.58;69.64;98167.94;5033575;28;20473;-55
2021/11/28 04:19:16;;;;;;;14.30;9.57;;;;;;;6.71;69.69;98177.47;5032042;28;20045;-59
2021/11/28 04:21:44;;;;;;;14.25;10.20;;;;;;;6.70;69.77;98173.13;5033610;28;20040;-54
2021/11/28 04:24:11;;;;;;;13.55;10.30;;;;;;;6.72;69.94;98174.66;5033695;28;20518;-57
2021/11/28 04:26:37;;;;;;;14.15;10.80;;;;;;;6.70;69.75;98179.28;5033161;28;20444;-56
2021/11/28 04:29:03;;;;;;;13.63;9.82;;;;;;;6.70;69.62;98181.94;5033449;28;20025;-59
2021/11/28 04:31:28;;;;;;;14.13;10.27;;;;;;;6.72;69.82;98176.50;5033414;28;20557;-58
2021/11/28 04:33:54;;;;;;;13.70;10.00;;;;;;;6.74;69.74;98183.31;5033329;28;20140;-57
2021/11/28 04:36:20;;;;;;;14.40;10.63;;;;;;;6.74;69.89;98186.00;5049384;28;20024;-58
2021/11/28 04:38:45;;;;;;;12.68;9.50;;;;;;;6.73;69.91;98186.97;5065172;28;20094;-57
2021/11/28 04:41:11;;;;;;;15.10;9.95;;;;;;;6.72;70.04;98200.44;5055963;28;20068;-56
2021/11/28 04:43:36;;;;;;;13.45;9.55;;;;;;;6.75;69.76;98205.47;5067302;28;20032;-56
2021/11/28 04:46:03;;;;;;;14.00;9.65;;;;;;;6.55;69.66;98167.38;5060609;28;20521;-58
2021/11/28 04:48:29;;;;;;;14.32;10.27;;;;;;;6.77;69.65;98208.00;5060154;28;20543;-58
2021/11/28 04:50:55;;;;;;;13.93;9.32;;;;;;;6.81;69.54;98201.41;5067762;28;20064;-56
2021/11/28 04:53:21;;;;;;;13.70;9.68;;;;;;;6.80;69.38;98207.72;5055219;28;20075;-56
2021/11/28 04:55:47;;;;;;;14.27;10.02;;;;;;;6.80;69.48;98215.69;5065821;28;20024;-55
2021/11/28 04:58:14;;;;;;;12.35;9.20;;;;;;;6.81;69.17;98225.34;5062095;28;20027;-58
2021/11/28 05:00:40;;;;;;;14.80;9.85;;;;;;;6.80;69.37;98213.84;5058631;28;20031;-56
2021/11/28 05:03:05;;;;;;;13.48;9.98;;;;;;;6.80;69.09;98223.66;5068573;28;20123;-57
2021/11/28 05:05:31;;;;;;;13.68;9.45;;;;;;;6.79;69.10;98214.00;5056077;28;20434;-56
2021/11/28 05:07:56;;;;;;;14.13;9.82;;;;;;;6.80;68.73;98221.00;5064842;28;20439;-57
2021/11/28 05:10:22;;;;;;;15.65;10.40;;;;;;;6.78;69.02;98220.31;5062734;28;20509;-56
2021/11/28 05:12:48;;;;;;;12.85;8.85;;;;;;;6.75;68.94;98230.25;5056121;28;20090;-58
2021/11/28 05:15:14;;;;;;;13.32;9.32;;;;;;;6.82;68.95;98222.53;5067985;28;20036;-53
2021/11/28 05:17:40;;;;;;;14.18;9.63;;;;;;;6.67;68.77;98203.50;5057035;28;20085;-52
2021/11/28 05:20:06;;;;;;;11.95;8.68;;;;;;;6.89;68.52;98244.09;5063298;28;20037;-56
2021/11/28 05:22:32;;;;;;;12.15;9.57;;;;;;;6.89;68.58;98238.78;5064044;28;20037;-58
2021/11/28 05:24:58;;;;;;;12.90;9.02;;;;;;;6.88;68.51;98239.75;5055527;28;20033;-59
2021/11/28 05:27:24;;;;;;;15.25;10.45;;;;;;;6.91;68.55;98246.63;5068362;28;20103;-56
2021/11/28 05:29:50;;;;;;;11.98;9.18;;;;;;;6.92;68.39;98254.47;5058072;28;20055;-58
2021/11/28 05:32:16;;;;;;;11.85;8.85;;;;;;;6.94;68.29;98263.16;5061060;28;20103;-57
2021/11/28 05:34:42;;;;;;;14.70;9.63;;;;;;;6.88;68.63;98263.72;5065009;28;20036;-54
2021/11/28 05:37:08;;;;;;;12.05;9.02;;;;;;;6.87;68.61;98262.03;5055087;28;20136;-52
2021/11/28 05:39:34;;;;;;;16.08;9.60;;;;;;;6.68;68.47;98236.25;5067501;28;20116;-57
2021/11/28 05:42:00;;;;;;;11.55;8.80;;;;;;;6.89;68.23;98268.06;5059030;28;20032;-58
2021/11/28 05:44:25;;;;;;;12.52;9.15;;;;;;;6.92;68.56;98281.06;5059563;28;20033;-56
2021/11/28 05:46:51;;;;;;;12.50;8.95;;;;;;;6.90;68.73;98277.72;5064977;28;20361;-53
2021/11/28 05:49:17;;;;;;;12.20;8.95;;;;;;;6.97;68.22;98292.13;5054608;28;20025;-55
2021/11/28 05:51:43;;;;;;;13.38;9.23;;;;;;;6.95;68.42;98278.13;5065346;28;20031;-56
2021/11/28 05:54:09;;;;;;;11.77;9.23;;;;;;;6.99;68.47;98281.38;5059800;28;20033;-57
2021/11/28 05:56:34;;;;;;;13.25;9.27;;;;;;;7.01;68.34;98280.25;5058533;28;20032;-56
2021/11/28 05:59:00;;;;;;;12.80;8.98;;;;;;;7.05;68.19;98291.44;5067214;28;20032;-58
2021/11/28 06:01:25;;;;;;;11.95;9.07;;;;;;;7.07;68.53;98288.66;5054129;28;20428;-56
2021/11/28 06:03:52;;;;;;;11.48;8.77;;;;;;;7.08;68.02;98296.47;5063882;28;20036;-55
2021/11/28 06:06:18;;;;;;;12.82;9.40;;;;;;;7.10;68.18;98293.69;5061362;28;20029;-52
2021/11/28 06:08:43;;;;;;;11.80;8.68;;;;;;;7.15;67.91;98299.44;5056548;28;20358;-56
2021/11/28 06:11:09;;;;;;;13.23;9.57;;;;;;;7.17;67.94;98313.44;5067083;28;20453;-57
2021/11/28 06:13:35;;;;;;;16.08;9.25;;;;;;;7.17;68.17;98316.97;5055353;28;20457;-55
2021/11/28 06:16:00;;;;;;;12.35;9.00;;;;;;;7.16;68.06;98303.78;5062500;28;20029;-58
2021/11/28 06:18:26;;;;;;;13.10;9.27;;;;;;;7.19;67.66;98314.13;5061658;28;20522;-56
2021/11/28 06:20:52;;;;;;;12.52;8.75;;;;;;;7.05;67.56;98286.13;5055612;28;20076;-57
2021/11/28 06:23:17;;;;;;;13.48;9.50;;;;;;;7.18;67.69;98318.63;5066993;28;20111;-60
2021/11/28 06:25:43;;;;;;;13.30;9.23;;;;;;;7.17;67.82;98324.94;5050640;28;20028;-57
2021/11/28 06:28:08;;;;;;;12.00;9.50;;;;;;;7.19;67.65;98335.44;5051513;28;20441;-57
2021/11/28 06:30:34;;;;;;;14.10;9.18;;;;;;;7.20;67.35;98342.44;5049835;28;20037;-57
2021/11/28 06:33:01;;;;;;;12.40;9.07;;;;;;;7.20;67.29;98337.13;5051053;28;20091;-58
2021/11/28 06:35:27;;;;;;;11.98;8.85;;;;;;;7.24;67.00;98337.69;5051530;28;20525;-54
2021/11/28 06:37:52;;;;;;;11.77;9.05;;;;;;;7.21;67.17;98338.78;5051281;28;20056;-57
2021/11/28 06:40:19;;;;;;;11.77;8.57;;;;;;;7.20;67.23;98352.25;5050928;28;20065;-55
2021/11/28 06:42:44;;;;;;;10.73;8.38;;;;;;;7.18;66.94;98345.25;5051032;28;20043;-56
2021/11/28 06:45:11;;;;;;;14.85;9.05;;;;;;;7.16;67.43;98357.00;5051095;28;20112;-54
2021/11/28 06:47:36;;;;;;;10.23;8.10;;;;;;;7.12;66.67;98366.25;5051183;28;20424;-61
2021/11/28 06:50:03;;;;;;;13.25;7.97;;;;;;;7.12;66.62;98355.59;5050553;28;20036;-59
2021/11/28 06:52:29;;;;;;;10.85;8.20;;;;;;;7.07;66.32;98356.00;5050859;28;20536;-57
2021/11/28 06:54:54;;;;;;;10.02;7.43;;;;;;;7.11;66.46;98360.06;5050955;28;20071;-57
2021/11/28 06:57:20;;;;;;;14.13;8.15;;;;;;;7.12;66.00;98361.78;5050351;28;20025;-59
2021/11/28 06:59:46;;;;;;;9.38;7.68;;;;;;;7.12;65.49;98359.13;5049508;28;20029;-59
2021/11/28 07:02:12;;;;;;;11.77;7.47;;;;;;;7.19;65.84;98367.38;5050828;28;20071;-57
2021/11/28 07:04:39;;;;;;;11.13;7.82;;;;;;;7.17;65.36;98370.19;5051104;28;20087;-59
2021/11/28 07:07:05;;;;;;;11.38;8.05;;;;;;;7.22;65.26;98367.09;5050399;28;20099;-61
2021/11/28 07:09:31;;;;;;;9.90;7.57;;;;;;;7.14;65.11;98349.19;5050362;28;20546;-61
2021/11/28 07:11:56;;;;;;;11.50;7.20;;;;;;;7.16;65.17;98363.19;5050518;28;20029;-61
2021/11/28 07:14:23;;;;;;;10.48;7.53;;;;;;;7.22;65.10;98372.41;5050625;28;20083;-60
2021/11/28 07:16:49;;;;;;;10.77;7.65;;;;;;;7.21;64.91;98373.41;5050358;28;20078;-60
2021/11/28 07:19:15;;;;;;;9.75;7.32;;;;;;;7.21;65.00;98378.72;5050407;28;20029;-60
2021/11/28 07:21:40;;;;;;;13.35;7.63;;;;;;;7.20;64.88;98384.19;5050939;28;20040;-61
2021/11/28 07:24:06;;;;;;;8.43;6.68;;;;;;;7.22;64.36;98392.88;5051202;28;20396;-61
2021/11/28 07:26:32;;;;;;;9.02;6.88;;;;;;;7.01;64.48;98369.88;5050434;28;20035;-62
2021/11/28 07:28:58;;;;;;;11.38;7.05;;;;;;;7.24;64.75;98399.78;5049429;28;20163;-63
2021/11/28 07:31:24;;;;;;;9.57;6.88;;;;;;;7.26;64.26;98408.47;5049855;28;20083;-61
2021/11/28 07:33:50;;;;;;;10.27;6.60;;;;;;;7.01;64.06;98378.72;5050345;28;20037;-60
2021/11/28 07:36:15;;;;;;;9.05;6.80;;;;;;;7.19;64.31;98412.63;5050077;28;20069;-62
2021/11/28 07:38:44;;;;;;;8.13;5.85;;;;;;;7.12;63.39;98419.47;5048491;28;20025;-61
2021/11/28 07:41:10;;;;;;;7.32;5.72;;;;;;;7.13;63.39;98421.16;5050137;28;20033;-60
2021/11/28 07:43:35;;;;;;;7.60;6.07;;;;;;;7.06;63.41;98436.84;5050555;28;20029;-61
2021/11/28 07:46:01;;;;;;;8.45;6.07;;;;;;;6.95;63.64;98429.78;5049972;28;20028;-61
2021/11/28 07:48:27;;;;;;;9.70;6.53;;;;;;;6.94;63.27;98444.06;5049867;28;20033;-60
2021/11/28 07:50:53;;;;;;;8.55;6.20;;;;;;;6.93;63.52;98442.41;5050047;28;20032;-61
2021/11/28 07:53:18;;;;;;;8.25;6.43;;;;;;;6.99;63.37;98449.00;5049868;28;20033;-61
2021/11/28 07:55:44;;;;;;;9.23;6.70;;;;;;;6.92;63.57;98451.34;5050109;28;20025;-61
2021/11/28 07:58:09;;;;;;;8.13;6.22;;;;;;;6.89;63.58;98449.81;5049980;28;20382;-61
2021/11/28 08:00:36;;;;;;;8.32;5.90;;;;;;;6.90;63.95;98448.00;5045520;28;20499;-62
2021/11/28 08:03:02;;;;;;;12.07;6.60;;;;;;;6.91;63.45;98449.66;5050044;28;20051;-63
2021/11/28 08:05:30;;;;;;;9.10;6.43;;;;;;;6.87;63.20;98437.63;5049696;28;20055;-63
2021/11/28 08:07:56;;;;;;;9.23;6.43;;;;;;;6.95;62.99;98447.59;5050332;28;20396;-61
2021/11/28 08:10:21;;;;;;;7.78;5.70;;;;;;;6.95;62.59;98440.44;5050758;28;20041;-63
2021/11/28 08:12:47;;;;;;;7.25;5.82;;;;;;;6.98;62.56;98450.81;5053513;28;20029;-62
2021/11/28 08:15:16;;;;;;;11.40;6.13;;;;;;;7.00;62.25;98446.22;5052566;28;20484;-53
2021/11/28 08:17:50;;;;;;;9.77;6.10;;;;;;;7.09;62.78;98451.69;5052549;28;20028;-55
2021/11/28 08:20:18;;;;;;;8.00;6.03;;;;;;;7.11;62.36;98461.22;5052611;28;20033;-57
2021/11/28 08:22:44;;;;;;;9.63;6.32;;;;;;;7.13;62.21;98463.75;5051625;28;20144;-54
2021/11/28 08:25:13;;;;;;;9.43;6.35;;;;;;;7.15;62.23;98461.78;5047788;28;20060;-61
2021/11/28 08:27:39;;;;;;;8.98;6.03;;;;;;;7.15;62.03;98456.47;5030330;28;20038;-58
2021/11/28 08:30:15;;;;;;;9.27;6.90;;;;;;;7.17;62.28;98465.16;5031184;28;20049;-56
2021/11/28 08:32:44;;;;;;;9.07;6.53;;;;;;;7.18;62.30;98470.38;5032702;28;20045;-59
2021/11/28 08:35:11;;;;;;;11.55;6.50;;;;;;;7.19;62.06;98476.50;5032745;28;20029;-60
2021/11/28 08:37:37;;;;;;;8.05;6.70;;;;;;;6.99;62.19;98441.03;5032135;28;20030;-59
2021/11/28 08:40:05;;;;;;;10.40;6.65;;;;;;;7.19;61.88;98471.19;5032431;28;20462;-59
2021/11/28 08:42:33;;;;;;;9.05;6.32;;;;;;;7.18;61.42;98465.03;5032183;28;20091;-61
2021/11/28 08:45:04;;;;;;;9.20;6.72;;;;;;;7.16;61.68;98474.13;5036911;28;20517;-57
2021/11/28 08:47:29;;;;;;;9.93;6.90;;;;;;;7.11;61.58;98474.53;5050855;28;20033;-57
2021/11/28 08:49:55;;;;;;;15.02;6.70;;;;;;;7.06;61.83;98473.25;5052437;28;20079;-58
2021/11/28 08:52:21;;;;;;;11.50;6.95;;;;;;;7.06;61.76;98473.25;5051810;28;20033;-57
2021/11/28 08:54:47;;;;;;;9.43;6.30;;;;;;;7.09;61.20;98488.97;5051806;28;20029;-60
2021/11/28 08:57:13;;;;;;;8.18;5.90;;;;;;;7.12;60.28;98486.88;5052134;28;20029;-57
2021/11/28 08:59:40;;;;;;;7.43;5.45;;;;;;;7.07;60.01;98486.41;5051843;28;20060;-57
2021/11/28 09:02:06;;;;;;;10.40;5.72;;;;;;;6.86;60.14;98462.53;5050209;28;20216;-58
2021/11/28 09:04:32;;;;;;;8.43;5.95;;;;;;;6.97;60.52;98486.38;5051204;28;20072;-58
2021/11/28 09:06:57;;;;;;;10.80;6.18;;;;;;;6.92;60.75;98477.97;5051714;28;20068;-55
2021/11/28 09:09:23;;;;;;;9.35;6.75;;;;;;;6.87;60.84;98481.03;5052193;28;20037;-57
2021/11/28 09:11:48;;;;;;;11.52;6.68;;;;;;;6.74;61.03;98459.13;5052391;28;20036;-60
2021/11/28 09:14:14;;;;;;;10.20;7.32;;;;;;;6.91;61.12;98492.25;5052259;28;20432;-59
2021/11/28 09:16:40;;;;;;;11.35;8.18;;;;;;;6.89;61.28;98481.75;5051384;28;20614;-57
2021/11/28 09:19:15;;;;;;;10.95;7.55;;;;;;;6.90;61.22;98495.88;5067418;28;20060;-56
2021/11/28 09:21:41;;;;;;;;;;;;;;;7.18;61.64;98504.09;5046160;28;20115;-57
2021/11/28 09:26:50;;;;;;;10.38;6.15;;;;;;;6.83;59.91;98473.44;5065199;28;20383;-61
2021/11/28 09:29:17;;;;;;;8.25;5.22;;;;;;;6.91;59.66;98512.69;5055474;28;20060;-59
2021/11/28 09:31:43;;;;;;;6.43;5.32;;;;;;;6.87;59.80;98509.44;5067951;28;20072;-57
2021/11/28 09:34:08;;;;;;;7.68;6.07;;;;;;;6.80;59.69;98511.78;5058414;28;20056;-58
2021/11/28 09:36:34;;;;;;;10.68;6.40;;;;;;;6.86;60.35;98521.91;5060207;28;20025;-57
2021/11/28 09:39:01;;;;;;;7.60;5.97;;;;;;;6.87;60.11;98512.97;5040622;28;20025;-57
2021/11/28 09:41:33;;;;;;;12.70;7.13;;;;;;;6.92;60.38;98522.38;5066030;28;20054;-57
2021/11/28 09:44:05;;;;;;;7.38;5.93;;;;;;;6.92;60.17;98533.84;5056671;28;20028;-59
2021/11/28 09:46:32;;;;;;;8.50;6.30;;;;;;;6.86;60.14;98543.19;5051794;28;20025;-59
2021/11/28 09:49:02;;;;;;;8.25;6.07;;;;;;;6.83;59.70;98530.16;5045401;28;20489;-58
2021/11/28 09:51:28;;;;;;;8.05;5.90;;;;;;;6.75;59.79;98530.84;5041472;28;20025;-59
2021/11/28 09:54:06;;;;;;;6.55;5.20;;;;;;;6.74;59.82;98545.06;5031459;28;20501;-57
2021/11/28 09:56:37;;;;;;;10.70;6.15;;;;;;;6.66;60.24;98549.38;5034908;28;20021;-57
2021/11/28 09:59:05;;;;;;;8.38;5.88;;;;;;;6.57;60.19;98553.66;5047045;28;20033;-60
2021/11/28 10:01:32;;;;;;;8.18;5.70;;;;;;;6.45;60.33;98551.06;5049354;28;20426;-59
2021/11/28 10:04:00;;;;;;;8.60;5.60;;;;;;;6.45;60.69;98547.56;5051674;28;20051;-59
2021/11/28 10:06:27;;;;;;;7.95;5.53;;;;;;;6.49;60.64;98556.97;5051147;28;20029;-60
2021/11/28 10:08:52;;;;;;;6.72;4.97;;;;;;;6.49;60.44;98554.31;5051437;28;20029;-55
2021/11/28 10:11:18;;;;;;;7.90;5.35;;;;;;;6.50;60.21;98568.44;5051984;28;20105;-62
2021/11/28 10:13:44;;;;;;;8.30;5.82;;;;;;;6.46;60.38;98565.22;5051525;28;20113;-55
2021/11/28 10:16:10;;;;;;;8.27;5.75;;;;;;;6.51;60.51;98576.28;5051349;28;20025;-57
2021/11/28 10:18:36;;;;;;;9.50;5.95;;;;;;;6.49;60.79;98588.03;5050793;28;20495;-58
2021/11/28 10:21:02;;;;;;;7.88;4.95;;;;;;;6.18;61.55;98541.75;5047677;28;20117;-56
2021/11/28 10:23:28;;;;;;;7.65;5.38;;;;;;;6.39;61.45;98578.16;5051096;28;20061;-57
2021/11/28 10:26:16;;;;;;;10.60;5.97;;;;;;;6.46;61.96;98584.66;5051344;28;20087;-56
2021/11/28 10:29:05;;;;;;;8.80;6.00;;;;;;;6.42;62.53;98587.72;5051384;28;20036;-60
2021/11/28 10:31:40;;;;;;;10.95;7.13;;;;;;;5.99;62.87;98545.09;5050985;28;20040;-61
2021/11/28 10:34:26;;;;;;;;;;;;;;;6.52;62.09;98596.59;5049128;28;20095;-61
2021/11/28 10:37:05;;;;;;;8.13;5.47;;;;;;;6.41;63.21;98605.47;5049664;28;19912;-58
2021/11/28 10:39:38;;;;;;;10.18;6.47;;;;;;;6.36;63.31;98606.81;5049779;28;20481;-57
2021/11/28 10:42:04;;;;;;;9.20;6.07;;;;;;;6.27;63.49;98605.75;5050842;28;20495;-60
2021/11/28 10:44:30;;;;;;;8.52;5.93;;;;;;;6.21;63.36;98611.59;5051534;28;20029;-56
2021/11/28 10:47:07;;;;;;;10.30;5.90;;;;;;;6.22;64.06;98623.91;5049822;28;20037;-56
2021/11/28 10:49:37;;;;;;;10.32;6.18;;;;;;;6.16;64.37;98628.75;5050768;28;20025;-57
2021/11/28 10:52:21;;;;;;;12.02;6.85;;;;;;;6.21;64.35;98636.34;5051040;28;20100;-59
2021/11/28 10:54:47;;;;;;;8.68;5.93;;;;;;;6.15;64.67;98640.34;5050246;28;20544;-56
2021/11/28 10:57:14;;;;;;;10.25;6.30;;;;;;;6.09;64.89;98634.69;5051139;28;20104;-54
2021/11/28 10:59:42;;;;;;;8.18;5.97;;;;;;;6.05;65.04;98631.47;5050976;28;20078;-60
2021/11/28 11:02:27;;;;;;;9.10;6.03;;;;;;;6.15;65.23;98643.00;5050927;28;20033;-60
2021/11/28 11:04:56;;;;;;;8.07;6.17;;;;;;;6.13;65.30;98644.94;5051136;28;20025;-57
2021/11/28 11:07:23;;;;;;;9.50;6.63;;;;;;;6.09;65.22;98648.84;5050946;28;20441;-57
2021/11/28 11:09:50;;;;;;;8.90;6.18;;;;;;;6.11;65.09;98654.88;5051065;28;20032;-62
2021/11/28 11:12:36;;;;;;;9.55;6.70;;;;;;;6.14;65.44;98649.28;5051531;28;20510;-58
2021/11/28 11:15:02;;;;;;;17.83;6.95;;;;;;;6.10;65.70;98647.88;5049759;28;20059;-56
2021/11/28 11:17:31;;;;;;;9.65;6.57;;;;;;;6.07;66.69;98660.53;5049469;28;20035;-59
2021/11/28 11:19:58;;;;;;;7.65;5.75;;;;;;;5.76;65.82;98626.63;5050260;28;20037;-62
2021/11/28 11:22:30;;;;;;;6.40;5.00;;;;;;;5.91;65.79;98659.09;5034530;28;20519;-59
2021/11/28 11:25:16;;;;;;;6.68;4.97;;;;;;;5.86;66.13;98666.56;5051191;28;20029;-53
2021/11/28 11:27:44;;;;;;;7.15;4.38;;;;;;;5.78;65.65;98661.03;5050481;28;20449;-56
2021/11/28 11:30:20;;;;;;;7.43;5.00;;;;;;;5.78;65.75;98669.00;5047186;28;20133;-56
2021/11/28 11:32:56;;;;;;;6.78;5.18;;;;;;;5.80;65.90;98667.94;5030975;28;20033;-58
2021/11/28 11:35:30;;;;;;;7.40;4.75;;;;;;;5.76;65.13;98671.78;5029903;28;20038;-57
2021/11/28 11:38:02;;;;;;;6.40;5.00;;;;;;;5.69;64.87;98668.78;5048836;28;20037;-59
2021/11/28 11:40:28;;;;;;;6.78;4.97;;;;;;;5.63;65.08;98679.03;5015258;28;20021;-57
2021/11/28 11:42:54;;;;;;;7.38;4.18;;;;;;;5.56;65.09;98660.94;5028065;28;20025;-57
2021/11/28 11:45:23;;;;;;;5.93;4.38;;;;;;;5.62;65.11;98674.69;5040005;28;20036;-62
2021/11/28 11:47:50;;;;;;;6.57;5.03;;;;;;;5.58;64.59;98682.91;5052093;28;20157;-59